メインページ
METAR-TAF:

METAR-TAF

空港 :

バンコク, タイ

ドンムアン空港

緯度: 13-54-45N, 経度: 100-36-24E, 海抜: 4m

現時点の気象観測

当レポートは34分前の16:00(UTC)に作成
西/南西の風 6kt
気温 28°C
湿度 79%
気圧 1009 hPa
視程10km以上
高度2000ftの雲はほとんどない

METAR: VTBD 221600Z 24006KT 9999 FEW020 28/24 Q1009 NOSIG

時間: 23:34 (16:34 UTC)

予報

当レポートは5時間34分前の11:00(UTC)に作成
予報は22日の 12時(UTC)から 23日の 18時(UTC)まで有効
南/南西の風 8kt
視程10km以上
高度2000ftの雲はほとんどない
高度4000ftの雲は散在している
22日の 16時(UTC)から 22日の 18時(UTC)まで徐々に
西の風 5kt
高度2000ftの雲はほとんどない
23日の 02時(UTC)から 23日の 04時(UTC)まで徐々に
南/南西の風 8kt
23日の 09時(UTC)から 23日の 13時(UTC)まで一時的に
西の風 15kt
視程: 6000m
高度1800ftの雲はほとんどない, 積乱雲.
高度3000ftの雲は散在している
激しい雷雨, 小雨
23日の 16時(UTC)から 23日の 18時(UTC)まで徐々に
西の風 5kt

TAF: VTBD 221100Z 2212/2318 21008KT 9999 FEW020 SCT040 BECMG 2216/2218 27005KT FEW020 BECMG 2302/2304 21008KT TEMPO 2309/2313 26015KT 6000 -TSRA FEW018CB SCT030 BECMG 2316/2318 27005KT

4,000以上の空港の気象観測と天気予報(METAR報とTAF報)

利用可能な観測所は地図上に黄色い丸と赤い丸で示す。

丸の上にカーソルを重ねると観測所名を参照できる。

次にクリックすると気象観測と天気予報を参照できる。

マップの切り替え:黒色「×」印の緑ボタンをクリックして拡大、「-」印の緑ボタンをクリックして縮小、緑色の三角印をクリックして隣りの地図に切り替え


METAR-TAF: